createdAt,value
2016-02-26T00:00:20.468Z,1007.91
2016-02-26T00:01:20.519Z,1007.93
2016-02-26T00:02:20.568Z,1007.92
2016-02-26T00:03:20.618Z,1007.9
2016-02-26T00:04:20.682Z,1007.86
2016-02-26T00:05:20.717Z,1007.91
2016-02-26T00:06:20.766Z,1007.94
2016-02-26T00:07:20.831Z,1007.88
2016-02-26T00:08:20.881Z,1007.88
2016-02-26T00:09:20.930Z,1007.89
2016-02-26T00:10:20.980Z,1007.88
2016-02-26T00:11:21.029Z,1007.87
2016-02-26T00:12:21.079Z,1007.88
2016-02-26T00:13:21.144Z,1007.87
2016-02-26T00:14:21.210Z,1007.88
2016-02-26T00:15:21.228Z,1007.86
2016-02-26T00:16:21.293Z,1007.85
2016-02-26T00:17:21.342Z,1007.87
2016-02-26T00:18:21.392Z,1007.89
2016-02-26T00:19:21.442Z,1007.85
2016-02-26T00:20:21.492Z,1007.83
2016-02-26T00:21:21.541Z,1007.85
2016-02-26T00:22:21.591Z,1007.81
2016-02-26T00:23:21.655Z,1007.85
2016-02-26T00:24:21.689Z,1007.84
2016-02-26T00:25:21.739Z,1007.84
2016-02-26T00:26:21.804Z,1007.87
2016-02-26T00:27:21.839Z,1007.83
2016-02-26T00:28:21.904Z,1007.81
2016-02-26T00:29:21.952Z,1007.81
2016-02-26T00:30:22.002Z,1007.79
2016-02-26T00:31:22.068Z,1007.79
2016-02-26T00:32:22.102Z,1007.8
2016-02-26T00:33:22.167Z,1007.74
2016-02-26T00:34:22.216Z,1007.77
2016-02-26T00:35:22.266Z,1007.75
2016-02-26T00:36:22.300Z,1007.73
2016-02-26T00:37:22.365Z,1007.77
2016-02-26T00:38:22.414Z,1007.76
2016-02-26T00:39:22.464Z,1007.79
2016-02-26T00:40:22.514Z,1007.81
2016-02-26T00:41:22.564Z,1007.83
2016-02-26T00:42:22.612Z,1007.81
2016-02-26T00:43:22.678Z,1007.79
2016-02-26T00:44:22.712Z,1007.81
2016-02-26T00:45:22.778Z,1007.82
2016-02-26T00:46:22.842Z,1007.82
2016-02-26T00:47:22.861Z,1007.83
2016-02-26T00:48:22.925Z,1007.83
2016-02-26T00:49:22.991Z,1007.87
2016-02-26T00:50:23.025Z,1007.87
2016-02-26T00:51:23.075Z,1007.86
2016-02-26T00:52:23.125Z,1007.87
2016-02-26T00:53:23.189Z,1007.86
2016-02-26T00:54:23.239Z,1007.85
2016-02-26T00:55:23.288Z,1007.84
2016-02-26T00:56:23.338Z,1007.85
2016-02-26T00:57:23.403Z,1007.85
2016-02-26T00:58:23.438Z,1007.82
2016-02-26T00:59:23.488Z,1007.78
2016-02-26T01:00:23.536Z,1007.76
2016-02-26T01:01:23.585Z,1007.79
2016-02-26T01:02:23.635Z,1007.75
2016-02-26T01:03:23.702Z,1007.77
2016-02-26T01:04:23.735Z,1007.77
2016-02-26T01:05:23.800Z,1007.75
2016-02-26T01:06:23.849Z,1007.77
2016-02-26T01:07:23.899Z,1007.8
2016-02-26T01:08:23.948Z,1007.78
2016-02-26T01:09:23.998Z,1007.81
2016-02-26T01:10:24.048Z,1007.83
2016-02-26T01:11:24.101Z,1007.85
2016-02-26T01:12:24.124Z,1007.81
2016-02-26T01:13:24.160Z,1007.81
2016-02-26T01:14:24.214Z,1007.8
2016-02-26T01:15:24.251Z,1007.82
2016-02-26T01:16:24.280Z,1007.78
2016-02-26T01:17:24.341Z,1007.76
2016-02-26T01:18:24.386Z,1007.71
2016-02-26T01:19:24.431Z,1007.75
2016-02-26T01:20:24.476Z,1007.74
2016-02-26T01:21:24.525Z,1007.78
2016-02-26T01:22:24.589Z,1007.75
2016-02-26T01:23:24.636Z,1007.78
2016-02-26T01:24:24.669Z,1007.74
2016-02-26T01:25:24.732Z,1007.7
2016-02-26T01:26:24.781Z,1007.74
2016-02-26T01:27:24.830Z,1007.73
2016-02-26T01:28:24.894Z,1007.67
2016-02-26T01:29:24.928Z,1007.67
2016-02-26T01:30:24.977Z,1007.68
2016-02-26T01:31:25.041Z,1007.64
2016-02-26T01:32:25.075Z,1007.61
2016-02-26T01:33:25.140Z,1007.65
2016-02-26T01:34:25.191Z,1007.68
2016-02-26T01:35:25.224Z,1007.68
2016-02-26T01:36:25.289Z,1007.65
2016-02-26T01:37:25.354Z,1007.65
2016-02-26T01:38:25.388Z,1007.62
2016-02-26T01:39:25.438Z,1007.64
2016-02-26T01:40:25.488Z,1007.6
2016-02-26T01:41:25.537Z,1007.61
2016-02-26T01:42:25.587Z,1007.58
2016-02-26T01:43:25.652Z,1007.62
2016-02-26T01:44:25.701Z,1007.58
2016-02-26T01:45:25.751Z,1007.57
2016-02-26T01:46:25.816Z,1007.53
2016-02-26T01:47:25.851Z,1007.53
2016-02-26T01:48:25.900Z,1007.52
2016-02-26T01:49:25.949Z,1007.53
2016-02-26T01:50:25.998Z,1007.48
2016-02-26T01:51:26.064Z,1007.49
2016-02-26T01:52:26.098Z,1007.46
2016-02-26T01:53:26.148Z,1007.41
2016-02-26T01:54:26.212Z,1007.45
2016-02-26T01:55:26.262Z,1007.45
2016-02-26T01:56:26.312Z,1007.44
2016-02-26T01:57:26.362Z,1007.43
2016-02-26T01:58:26.411Z,1007.42
2016-02-26T01:59:26.461Z,1007.44
2016-02-26T02:00:26.525Z,1007.43
2016-02-26T02:01:26.575Z,1007.41
2016-02-26T02:02:26.609Z,1007.36
2016-02-26T02:03:26.658Z,1007.35
2016-02-26T02:04:26.724Z,1007.39
2016-02-26T02:05:26.774Z,1007.33
2016-02-26T02:06:26.824Z,1007.32
2016-02-26T02:07:26.872Z,1007.33
2016-02-26T02:08:26.922Z,1007.32
2016-02-26T02:09:26.971Z,1007.33
2016-02-26T02:10:27.022Z,1007.34
2016-02-26T02:11:27.071Z,1007.32
2016-02-26T02:12:27.136Z,1007.3
2016-02-26T02:13:27.170Z,1007.32
2016-02-26T02:14:27.235Z,1007.3
2016-02-26T02:15:27.285Z,1007.31
2016-02-26T02:16:27.334Z,1007.34
2016-02-26T02:17:27.384Z,1007.35
2016-02-26T02:18:27.449Z,1007.34
2016-02-26T02:19:27.483Z,1007.33
2016-02-26T02:20:27.532Z,1007.31
2016-02-26T02:21:27.598Z,1007.29
2016-02-26T02:22:27.631Z,1007.3
2016-02-26T02:23:27.697Z,1007.28
2016-02-26T02:24:27.747Z,1007.29
2016-02-26T02:25:27.796Z,1007.29
2016-02-26T02:26:27.845Z,1007.28
2016-02-26T02:27:27.895Z,1007.25
2016-02-26T02:28:27.945Z,1007.25
2016-02-26T02:29:28.011Z,1007.26
2016-02-26T02:30:28.059Z,1007.23
2016-02-26T02:31:28.094Z,1007.24
2016-02-26T02:32:28.158Z,1007.19
2016-02-26T02:33:28.209Z,1007.22
2016-02-26T02:34:28.258Z,1007.28
2016-02-26T02:35:28.308Z,1007.22
2016-02-26T02:36:28.357Z,1007.27
2016-02-26T02:37:28.407Z,1007.25
2016-02-26T02:38:28.455Z,1007.25
2016-02-26T02:39:28.505Z,1007.22
2016-02-26T02:40:28.571Z,1007.21
2016-02-26T02:41:28.621Z,1007.2
2016-02-26T02:42:28.655Z,1007.2
2016-02-26T02:43:28.719Z,1007.23
2016-02-26T02:44:28.768Z,1007.2
2016-02-26T02:45:28.818Z,1007.23
2016-02-26T02:46:28.869Z,1007.22
2016-02-26T02:47:28.918Z,1007.22
2016-02-26T02:48:28.968Z,1007.19
2016-02-26T02:49:29.017Z,1007.17
2016-02-26T02:50:29.082Z,1007.22
2016-02-26T02:51:29.131Z,1007.18
2016-02-26T02:52:29.165Z,1007.22
2016-02-26T02:53:29.231Z,1007.22
2016-02-26T02:54:29.281Z,1007.21
2016-02-26T02:55:29.331Z,1007.17
2016-02-26T02:56:29.379Z,1007.15
2016-02-26T02:57:29.428Z,1007.15
2016-02-26T02:58:29.478Z,1007.17
2016-02-26T02:59:29.545Z,1007.15
2016-02-26T03:00:29.578Z,1007.16
2016-02-26T03:01:29.643Z,1007.12
2016-02-26T03:02:29.692Z,1007.16
2016-02-26T03:03:29.742Z,1007.12
2016-02-26T03:04:29.792Z,1007.1
2016-02-26T03:05:29.846Z,1007.1
2016-02-26T03:06:29.896Z,1007.1
2016-02-26T03:07:29.946Z,1007.09
2016-02-26T03:08:29.994Z,1007.1
2016-02-26T03:09:30.045Z,1007.07
2016-02-26T03:10:30.094Z,1007.05
2016-02-26T03:11:30.145Z,1007.07
2016-02-26T03:12:30.194Z,1007.07
2016-02-26T03:13:30.259Z,1007.06
2016-02-26T03:14:30.294Z,1007.07
2016-02-26T03:15:30.343Z,1007.07
2016-02-26T03:16:30.408Z,1007.04
2016-02-26T03:17:30.457Z,1007.06
2016-02-26T03:18:30.507Z,1007.09
2016-02-26T03:19:30.572Z,1007.08
2016-02-26T03:20:30.607Z,1007.11
2016-02-26T03:21:30.655Z,1007.13
2016-02-26T03:22:30.721Z,1007.05
2016-02-26T03:23:30.770Z,1007.08
2016-02-26T03:24:30.805Z,1007.1
2016-02-26T03:25:30.870Z,1007.11
2016-02-26T03:26:30.904Z,1007.1
2016-02-26T03:27:30.968Z,1007.12
2016-02-26T03:28:31.018Z,1007.08
2016-02-26T03:29:31.068Z,1007.12
2016-02-26T03:30:31.134Z,1007.15
2016-02-26T03:31:31.167Z,1007.1
2016-02-26T03:32:31.217Z,1007.09
2016-02-26T03:33:31.266Z,1007.07
2016-02-26T03:34:31.315Z,1007.1
2016-02-26T03:35:31.365Z,1007.11
2016-02-26T03:36:31.414Z,1007.11
2016-02-26T03:37:31.465Z,1007.13
2016-02-26T03:38:31.530Z,1007.11
2016-02-26T03:39:31.579Z,1007.12
2016-02-26T03:40:31.628Z,1007.12
2016-02-26T03:41:31.678Z,1007.14
2016-02-26T03:42:31.728Z,1007.12
2016-02-26T03:43:31.778Z,1007.14
2016-02-26T03:44:31.827Z,1007.12
2016-02-26T03:45:31.877Z,1007.1
2016-02-26T03:46:31.941Z,1007.14
2016-02-26T03:47:31.975Z,1007.09
2016-02-26T03:48:32.041Z,1007.1
2016-02-26T03:49:32.090Z,1007.08
2016-02-26T03:50:32.141Z,1007.07
2016-02-26T03:51:32.190Z,1007.04
2016-02-26T03:52:32.238Z,1007.1
2016-02-26T03:53:32.288Z,1007.07
2016-02-26T03:54:32.338Z,1007.07
2016-02-26T03:55:32.388Z,1007.04
2016-02-26T03:56:32.438Z,1007.06
2016-02-26T03:57:32.502Z,1007.05
2016-02-26T03:58:32.552Z,1007.05
2016-02-26T03:59:32.601Z,1007.07
2016-02-26T04:00:32.651Z,1007.07
2016-02-26T04:01:32.701Z,1007.08
2016-02-26T04:02:32.751Z,1007.07
2016-02-26T04:03:32.800Z,1007.09
2016-02-26T04:04:32.850Z,1007.08
2016-02-26T04:05:32.898Z,1007.04
2016-02-26T04:06:32.948Z,1007.05
2016-02-26T04:07:33.014Z,1007.03
2016-02-26T04:08:33.063Z,1007.03
2016-02-26T04:09:33.113Z,1007.05
2016-02-26T04:10:33.162Z,1007.07
2016-02-26T04:11:33.211Z,1007.11
2016-02-26T04:12:33.261Z,1007.09
2016-02-26T04:13:33.312Z,1007.1
2016-02-26T04:14:33.361Z,1007.11
2016-02-26T04:15:33.426Z,1007.13
2016-02-26T04:16:33.460Z,1007.12
2016-02-26T04:17:33.525Z,1007.15
2016-02-26T04:18:33.574Z,1007.1
2016-02-26T04:19:33.624Z,1007.14
2016-02-26T04:20:33.674Z,1007.16
2016-02-26T04:21:33.724Z,1007.11
2016-02-26T04:22:33.773Z,1007.08
2016-02-26T04:23:33.822Z,1007.12
2016-02-26T04:24:33.871Z,1007.08
2016-02-26T04:25:33.921Z,1007.09
2016-02-26T04:26:33.972Z,1007.11
2016-02-26T04:27:34.021Z,1007.12
2016-02-26T04:28:34.086Z,1007.1
2016-02-26T04:29:34.135Z,1007.09
2016-02-26T04:30:34.185Z,1007.03
2016-02-26T04:31:34.234Z,1007.05
2016-02-26T04:32:34.285Z,1007.05
2016-02-26T04:33:34.334Z,1007.06
2016-02-26T04:34:34.384Z,1007.06
2016-02-26T04:35:34.433Z,1007.03
2016-02-26T04:36:34.482Z,1007.04
2016-02-26T04:37:34.547Z,1007.01
2016-02-26T04:38:34.581Z,1007.02
2016-02-26T04:39:34.648Z,1007.05
2016-02-26T04:40:34.697Z,1007.02
2016-02-26T04:41:34.745Z,1007.05
2016-02-26T04:42:34.795Z,1007.04
2016-02-26T04:43:34.845Z,1007.01
2016-02-26T04:44:34.895Z,1007.05
2016-02-26T04:45:34.945Z,1007
2016-02-26T04:46:35.009Z,1006.99
2016-02-26T04:47:35.044Z,1006.99
2016-02-26T04:48:35.108Z,1006.97
2016-02-26T04:49:35.142Z,1006.95
2016-02-26T04:50:35.207Z,1006.93
2016-02-26T04:51:35.257Z,1006.95
2016-02-26T04:52:35.308Z,1006.91
2016-02-26T04:53:35.357Z,1006.93
2016-02-26T04:54:35.405Z,1006.94
2016-02-26T04:55:35.455Z,1006.94
2016-02-26T04:56:35.504Z,1006.91
2016-02-26T04:57:35.555Z,1006.88
2016-02-26T04:58:35.605Z,1006.93
2016-02-26T04:59:35.669Z,1006.88
2016-02-26T05:00:35.704Z,1006.87
2016-02-26T05:01:35.768Z,1006.85
2016-02-26T05:02:35.818Z,1006.87
2016-02-26T05:03:35.867Z,1006.86
2016-02-26T05:04:35.917Z,1006.84
2016-02-26T05:05:35.957Z,1006.84
2016-02-26T05:06:36.022Z,1006.83
2016-02-26T05:07:36.071Z,1006.84
2016-02-26T05:08:36.121Z,1006.8
2016-02-26T05:09:36.171Z,1006.8
2016-02-26T05:10:36.221Z,1006.79
2016-02-26T05:11:36.270Z,1006.78
2016-02-26T05:12:36.320Z,1006.77
2016-02-26T05:13:36.385Z,1006.75
2016-02-26T05:14:36.418Z,1006.76
2016-02-26T05:15:36.468Z,1006.76
2016-02-26T05:16:36.533Z,1006.74
2016-02-26T05:17:36.584Z,1006.73
2016-02-26T05:18:36.633Z,1006.73
2016-02-26T05:19:36.682Z,1006.73
2016-02-26T05:20:36.731Z,1006.74
2016-02-26T05:21:36.781Z,1006.73
2016-02-26T05:22:36.831Z,1006.7
2016-02-26T05:23:36.880Z,1006.71
2016-02-26T05:24:36.930Z,1006.69
2016-02-26T05:25:36.980Z,1006.71
2016-02-26T05:26:37.030Z,1006.68
2016-02-26T05:27:37.078Z,1006.75
2016-02-26T05:28:37.144Z,1006.73
2016-02-26T05:29:37.193Z,1006.77
2016-02-26T05:30:37.244Z,1006.78
2016-02-26T05:31:37.293Z,1006.74
2016-02-26T05:32:37.341Z,1006.77
2016-02-26T05:33:37.391Z,1006.75
2016-02-26T05:34:37.441Z,1006.76
2016-02-26T05:35:37.491Z,1006.73
2016-02-26T05:36:37.541Z,1006.72
2016-02-26T05:37:37.590Z,1006.71
2016-02-26T05:38:37.640Z,1006.72
2016-02-26T05:39:37.689Z,1006.71
2016-02-26T05:40:37.738Z,1006.68
2016-02-26T05:41:37.803Z,1006.66
2016-02-26T05:42:37.853Z,1006.69
2016-02-26T05:43:37.903Z,1006.71
2016-02-26T05:44:37.953Z,1006.68
2016-02-26T05:45:38.002Z,1006.66
2016-02-26T05:46:38.051Z,1006.67
2016-02-26T05:47:38.101Z,1006.71
2016-02-26T05:48:38.151Z,1006.71
2016-02-26T05:49:38.201Z,1006.72
2016-02-26T05:50:38.250Z,1006.72
2016-02-26T05:51:38.315Z,1006.75
2016-02-26T05:52:38.365Z,1006.74
2016-02-26T05:53:38.415Z,1006.73
2016-02-26T05:54:38.464Z,1006.74
2016-02-26T05:55:38.513Z,1006.71
2016-02-26T05:56:38.564Z,1006.69
2016-02-26T05:57:38.613Z,1006.7
2016-02-26T05:58:38.661Z,1006.71
2016-02-26T05:59:38.711Z,1006.72
2016-02-26T06:00:38.761Z,1006.75
2016-02-26T06:01:38.811Z,1006.71
2016-02-26T06:02:38.861Z,1006.76
2016-02-26T06:03:38.925Z,1006.77
2016-02-26T06:04:38.960Z,1006.78
2016-02-26T06:05:39.024Z,1006.77
2016-02-26T06:06:39.074Z,1006.79
2016-02-26T06:07:39.124Z,1006.81
2016-02-26T06:08:39.174Z,1006.83
2016-02-26T06:09:39.223Z,1006.81
2016-02-26T06:10:39.273Z,1006.83
2016-02-26T06:11:39.321Z,1006.87
2016-02-26T06:12:39.371Z,1006.88
2016-02-26T06:13:39.421Z,1006.94
2016-02-26T06:14:39.471Z,1006.9
2016-02-26T06:15:39.521Z,1006.92
2016-02-26T06:16:39.585Z,1006.95
2016-02-26T06:17:39.635Z,1006.93
2016-02-26T06:18:39.684Z,1006.94
2016-02-26T06:19:39.734Z,1006.92
2016-02-26T06:20:39.783Z,1006.89
2016-02-26T06:21:39.834Z,1006.96
2016-02-26T06:22:39.883Z,1006.92
2016-02-26T06:23:39.933Z,1006.91
2016-02-26T06:24:39.981Z,1006.9
2016-02-26T06:25:40.031Z,1006.9
2016-02-26T06:26:40.081Z,1006.92
2016-02-26T06:27:40.130Z,1006.92
2016-02-26T06:28:40.212Z,1006.93
2016-02-26T06:29:40.230Z,1006.95
2016-02-26T06:30:40.295Z,1006.97
2016-02-26T06:31:40.344Z,1006.97
2016-02-26T06:32:40.394Z,1006.99
2016-02-26T06:33:40.443Z,1006.98
2016-02-26T06:34:40.494Z,1006.98
2016-02-26T06:35:40.543Z,1006.99
2016-02-26T06:36:40.593Z,1006.95
2016-02-26T06:37:40.641Z,1006.97
2016-02-26T06:38:40.691Z,1006.98
2016-02-26T06:39:40.740Z,1006.94
2016-02-26T06:40:40.791Z,1006.94
2016-02-26T06:41:40.841Z,1006.99
2016-02-26T06:42:40.901Z,1006.97
2016-02-26T06:43:40.950Z,1006.93
2016-02-26T06:44:41.000Z,1006.98
2016-02-26T06:45:41.051Z,1007
2016-02-26T06:46:41.100Z,1007
2016-02-26T06:47:41.149Z,1007.04
2016-02-26T06:48:41.199Z,1007.01
2016-02-26T06:49:41.249Z,1007
2016-02-26T06:50:41.298Z,1007.01
2016-02-26T06:51:41.363Z,1007.05
2016-02-26T06:52:41.413Z,1007.02
2016-02-26T06:53:41.463Z,1007.03
2016-02-26T06:54:41.513Z,1007.04
2016-02-26T06:55:41.561Z,1007.06
2016-02-26T06:56:41.610Z,1007.06
2016-02-26T06:57:41.660Z,1007.03
2016-02-26T06:58:41.710Z,1007.02
2016-02-26T06:59:41.760Z,1007.09
2016-02-26T07:00:41.810Z,1007.08
2016-02-26T07:01:41.859Z,1007.11
2016-02-26T07:02:41.909Z,1007.09
2016-02-26T07:03:41.957Z,1007.11
2016-02-26T07:04:42.007Z,1007.1
2016-02-26T07:05:42.057Z,1007.1
2016-02-26T07:06:42.123Z,1007.14
2016-02-26T07:07:42.173Z,1007.12
2016-02-26T07:08:42.221Z,1007.13
2016-02-26T07:09:42.270Z,1007.15
2016-02-26T07:10:42.320Z,1007.14
2016-02-26T07:11:42.371Z,1007.13
2016-02-26T07:12:42.420Z,1007.13
2016-02-26T07:13:42.470Z,1007.13
2016-02-26T07:14:42.519Z,1007.11
2016-02-26T07:15:42.569Z,1007.15
2016-02-26T07:16:42.617Z,1007.16
2016-02-26T07:17:42.683Z,1007.16
2016-02-26T07:18:42.732Z,1007.18
2016-02-26T07:19:42.767Z,1007.21
2016-02-26T07:20:42.833Z,1007.23
2016-02-26T07:21:42.881Z,1007.22
2016-02-26T07:22:42.931Z,1007.25
2016-02-26T07:23:42.980Z,1007.23
2016-02-26T07:24:43.031Z,1007.24
2016-02-26T07:25:43.080Z,1007.25
2016-02-26T07:26:43.145Z,1007.24
2016-02-26T07:27:43.179Z,1007.24
2016-02-26T07:28:43.229Z,1007.28
2016-02-26T07:29:43.277Z,1007.27
2016-02-26T07:30:43.327Z,1007.3
2016-02-26T07:31:43.376Z,1007.28
2016-02-26T07:32:43.443Z,1007.28
2016-02-26T07:33:43.493Z,1007.26
2016-02-26T07:34:43.541Z,1007.24
2016-02-26T07:35:43.591Z,1007.27
2016-02-26T07:36:43.640Z,1007.28
2016-02-26T07:37:43.706Z,1007.24
2016-02-26T07:38:43.740Z,1007.27
2016-02-26T07:39:43.790Z,1007.22
2016-02-26T07:40:43.839Z,1007.22
2016-02-26T07:41:43.889Z,1007.26
2016-02-26T07:42:43.937Z,1007.23
2016-02-26T07:43:43.987Z,1007.22
2016-02-26T07:44:44.036Z,1007.24
2016-02-26T07:45:44.087Z,1007.23
2016-02-26T07:46:44.153Z,1007.2
2016-02-26T07:47:44.201Z,1007.23
2016-02-26T07:48:44.251Z,1007.22
2016-02-26T07:49:44.300Z,1007.25
2016-02-26T07:50:44.350Z,1007.23
2016-02-26T07:51:44.399Z,1007.25
2016-02-26T07:52:44.450Z,1007.24
2016-02-26T07:53:44.499Z,1007.32
2016-02-26T07:54:44.549Z,1007.31
2016-02-26T07:55:44.597Z,1007.35
2016-02-26T07:56:44.647Z,1007.31
2016-02-26T07:57:44.696Z,1007.32
2016-02-26T07:58:44.747Z,1007.32
2016-02-26T07:59:44.797Z,1007.36
2016-02-26T08:00:44.846Z,1007.36
2016-02-26T08:01:44.896Z,1007.39
2016-02-26T08:02:44.945Z,1007.42
2016-02-26T08:03:45.010Z,1007.39
2016-02-26T08:04:45.043Z,1007.36
2016-02-26T08:05:45.093Z,1007.35
2016-02-26T08:06:45.143Z,1007.34
2016-02-26T08:07:45.193Z,1007.31
2016-02-26T08:08:45.258Z,1007.35
2016-02-26T08:09:45.307Z,1007.34
2016-02-26T08:10:45.357Z,1007.37
2016-02-26T08:11:45.391Z,1007.35
2016-02-26T08:12:45.440Z,1007.37
2016-02-26T08:13:45.490Z,1007.41
2016-02-26T08:14:45.540Z,1007.38
2016-02-26T08:15:45.589Z,1007.42
2016-02-26T08:16:45.639Z,1007.42
2016-02-26T08:17:45.689Z,1007.42
2016-02-26T08:18:45.738Z,1007.38
2016-02-26T08:19:45.787Z,1007.42
2016-02-26T08:20:45.837Z,1007.42
2016-02-26T08:21:45.871Z,1007.43
2016-02-26T08:22:45.936Z,1007.43
2016-02-26T08:23:45.986Z,1007.42
2016-02-26T08:24:46.020Z,1007.44
2016-02-26T08:25:46.069Z,1007.46
2016-02-26T08:26:46.119Z,1007.44
2016-02-26T08:27:46.169Z,1007.44
2016-02-26T08:28:46.218Z,1007.43
2016-02-26T08:29:46.268Z,1007.47
2016-02-26T08:30:46.317Z,1007.46
2016-02-26T08:31:46.366Z,1007.46
2016-02-26T08:32:46.416Z,1007.51
2016-02-26T08:33:46.466Z,1007.51
2016-02-26T08:34:46.515Z,1007.47
2016-02-26T08:35:46.565Z,1007.5
2016-02-26T08:36:46.615Z,1007.51
2016-02-26T08:37:46.648Z,1007.5
2016-02-26T08:38:46.729Z,1007.49
2016-02-26T08:39:46.747Z,1007.49
2016-02-26T08:40:46.797Z,1007.5
2016-02-26T08:41:46.846Z,1007.49
2016-02-26T08:42:46.896Z,1007.51
2016-02-26T08:43:46.945Z,1007.53
2016-02-26T08:44:46.996Z,1007.55
2016-02-26T08:45:47.045Z,1007.55
2016-02-26T08:46:47.095Z,1007.55
2016-02-26T08:47:47.144Z,1007.55
2016-02-26T08:48:47.194Z,1007.51
2016-02-26T08:49:47.243Z,1007.5
2016-02-26T08:50:47.292Z,1007.5
2016-02-26T08:51:47.342Z,1007.51
2016-02-26T08:52:47.392Z,1007.44
2016-02-26T08:53:47.441Z,1007.47
2016-02-26T08:54:47.491Z,1007.45
2016-02-26T08:55:47.525Z,1007.47
2016-02-26T08:56:47.591Z,1007.44
2016-02-26T08:57:47.639Z,1007.41
2016-02-26T08:58:47.674Z,1007.4
2016-02-26T08:59:47.724Z,1007.42
2016-02-26T09:00:47.772Z,1007.45
2016-02-26T09:01:47.822Z,1007.41
2016-02-26T09:02:47.888Z,1007.47
2016-02-26T09:03:47.922Z,1007.46
2016-02-26T09:04:47.971Z,1007.4
2016-02-26T09:05:48.021Z,1007.37
2016-02-26T09:06:48.071Z,1007.34
2016-02-26T09:07:48.120Z,1007.36
2016-02-26T09:08:48.169Z,1007.34
2016-02-26T09:09:48.219Z,1007.38
2016-02-26T09:10:48.268Z,1007.4
2016-02-26T09:11:48.318Z,1007.38
2016-02-26T09:12:48.368Z,1007.35
2016-02-26T09:13:48.432Z,1007.36
2016-02-26T09:14:48.467Z,1007.31
2016-02-26T09:15:48.517Z,1007.33
2016-02-26T09:16:48.566Z,1007.3
2016-02-26T09:17:48.615Z,1007.36
2016-02-26T09:18:48.665Z,1007.34
2016-02-26T09:19:48.715Z,1007.32
2016-02-26T09:20:48.764Z,1007.35
2016-02-26T09:21:48.814Z,1007.33
2016-02-26T09:22:48.878Z,1007.39
2016-02-26T09:23:48.913Z,1007.38
2016-02-26T09:24:48.962Z,1007.31
2016-02-26T09:25:49.027Z,1007.29
2016-02-26T09:26:49.061Z,1007.29
2016-02-26T09:27:49.111Z,1007.3
2016-02-26T09:28:49.161Z,1007.29
2016-02-26T09:29:49.210Z,1007.28
2016-02-26T09:30:49.260Z,1007.3
2016-02-26T09:31:49.310Z,1007.33
2016-02-26T09:32:49.358Z,1007.3
2016-02-26T09:33:49.408Z,1007.3
2016-02-26T09:34:49.458Z,1007.3
2016-02-26T09:35:49.507Z,1007.29
2016-02-26T09:36:49.557Z,1007.29
2016-02-26T09:37:49.606Z,1007.27
2016-02-26T09:38:49.657Z,1007.24
2016-02-26T09:39:49.706Z,1007.25
2016-02-26T09:40:49.755Z,1007.3
2016-02-26T09:41:49.805Z,1007.27
2016-02-26T09:42:49.854Z,1007.31
2016-02-26T09:43:49.904Z,1007.29
2016-02-26T09:44:49.953Z,1007.3
2016-02-26T09:45:50.004Z,1007.26
2016-02-26T09:46:50.053Z,1007.27
2016-02-26T09:47:50.086Z,1007.29
2016-02-26T09:48:50.151Z,1007.3
2016-02-26T09:49:50.201Z,1007.31
2016-02-26T09:50:50.251Z,1007.3
2016-02-26T09:51:50.301Z,1007.28
2016-02-26T09:52:50.351Z,1007.29
2016-02-26T09:53:50.384Z,1007.29
2016-02-26T09:54:50.434Z,1007.23
2016-02-26T09:55:50.484Z,1007.26
2016-02-26T09:56:50.548Z,1007.26
2016-02-26T09:57:50.598Z,1007.25
2016-02-26T09:58:50.647Z,1007.27
2016-02-26T09:59:50.697Z,1007.28
2016-02-26T10:00:50.731Z,1007.26
2016-02-26T10:01:50.796Z,1007.28
2016-02-26T10:02:50.846Z,1007.26
2016-02-26T10:03:50.880Z,1007.33
2016-02-26T10:04:50.944Z,1007.32
2016-02-26T10:05:50.979Z,1007.29
2016-02-26T10:06:51.044Z,1007.32
2016-02-26T10:07:51.093Z,1007.29
2016-02-26T10:08:51.143Z,1007.3
2016-02-26T10:09:51.192Z,1007.3
2016-02-26T10:10:51.243Z,1007.26
2016-02-26T10:11:51.292Z,1007.27
2016-02-26T10:12:51.341Z,1007.29
2016-02-26T10:13:51.391Z,1007.3
2016-02-26T10:14:51.441Z,1007.28
2016-02-26T10:15:51.490Z,1007.3
2016-02-26T10:16:51.537Z,1007.3
2016-02-26T10:17:51.575Z,1007.32
2016-02-26T10:18:51.612Z,1007.32
2016-02-26T10:19:51.651Z,1007.34
2016-02-26T10:20:51.690Z,1007.29
2016-02-26T10:21:51.728Z,1007.33
2016-02-26T10:22:51.774Z,1007.25
2016-02-26T10:23:51.819Z,1007.28
2016-02-26T10:24:51.879Z,1007.3
2016-02-26T10:25:51.909Z,1007.24
2016-02-26T10:26:51.955Z,1007.26
2016-02-26T10:27:52.003Z,1007.26
2016-02-26T10:28:52.113Z,1007.28
2016-02-26T10:29:52.098Z,1007.25
2016-02-26T10:30:52.146Z,1007.24
2016-02-26T10:31:52.195Z,1007.26
2016-02-26T10:32:52.244Z,1007.29
2016-02-26T10:33:52.294Z,1007.25
2016-02-26T10:34:52.373Z,1007.24
2016-02-26T10:35:52.407Z,1007.23
2016-02-26T10:36:52.456Z,1007.25
2016-02-26T10:37:52.505Z,1007.24
2016-02-26T10:38:52.554Z,1007.29
2016-02-26T10:39:52.604Z,1007.26
2016-02-26T10:40:52.653Z,1007.28
2016-02-26T10:41:52.718Z,1007.28
2016-02-26T10:42:52.752Z,1007.26
2016-02-26T10:43:52.801Z,1007.25
2016-02-26T10:44:52.851Z,1007.28
2016-02-26T10:45:52.901Z,1007.27
2016-02-26T10:46:52.965Z,1007.29
2016-02-26T10:47:53.000Z,1007.24
2016-02-26T10:48:53.050Z,1007.19
2016-02-26T10:49:53.098Z,1007.24
2016-02-26T10:50:53.149Z,1007.23
2016-02-26T10:51:53.198Z,1007.25
2016-02-26T10:52:53.264Z,1007.26
2016-02-26T10:53:53.313Z,1007.25
2016-02-26T10:54:53.362Z,1007.23
2016-02-26T10:55:53.411Z,1007.23
2016-02-26T10:56:53.461Z,1007.22
2016-02-26T10:57:53.511Z,1007.22
2016-02-26T10:58:53.561Z,1007.22
2016-02-26T10:59:53.610Z,1007.22
2016-02-26T11:00:53.660Z,1007.17
2016-02-26T11:01:53.710Z,1007.16
2016-02-26T11:02:53.758Z,1007.15
2016-02-26T11:03:53.808Z,1007.13
2016-02-26T11:04:53.874Z,1007.14
2016-02-26T11:05:53.907Z,1007.1
2016-02-26T11:06:53.957Z,1007.1
2016-02-26T11:07:54.006Z,1007.05
2016-02-26T11:08:54.072Z,1007.08
2016-02-26T11:09:54.122Z,1007.04
2016-02-26T11:10:54.171Z,1007.06
2016-02-26T11:11:54.220Z,1007.08
2016-02-26T11:12:54.271Z,1007.1
2016-02-26T11:13:54.320Z,1007.08
2016-02-26T11:14:54.370Z,1007.09
2016-02-26T11:15:54.418Z,1007.09
2016-02-26T11:16:54.468Z,1007.04
2016-02-26T11:17:54.518Z,1007.01
2016-02-26T11:18:54.567Z,1007.04
2016-02-26T11:19:54.617Z,1007.01
2016-02-26T11:20:54.667Z,1006.99
2016-02-26T11:21:54.731Z,1007
2016-02-26T11:22:54.781Z,1006.97
2016-02-26T11:23:54.830Z,1006.94
2016-02-26T11:24:54.880Z,1006.96
2016-02-26T11:25:54.930Z,1006.92
2016-02-26T11:26:54.980Z,1006.92
2016-02-26T11:27:55.029Z,1006.92
2016-02-26T11:28:55.079Z,1006.9
2016-02-26T11:29:55.128Z,1006.86
2016-02-26T11:30:55.178Z,1006.87
2016-02-26T11:31:55.243Z,1006.84
2016-02-26T11:32:55.293Z,1006.84
2016-02-26T11:33:55.342Z,1006.84
2016-02-26T11:34:55.391Z,1006.83
2016-02-26T11:35:55.441Z,1006.84
2016-02-26T11:36:55.491Z,1006.82
2016-02-26T11:37:55.541Z,1006.84
2016-02-26T11:38:55.591Z,1006.8
2016-02-26T11:39:55.640Z,1006.8
2016-02-26T11:40:55.704Z,1006.77
2016-02-26T11:41:55.755Z,1006.75
2016-02-26T11:42:55.788Z,1006.74
2016-02-26T11:43:55.854Z,1006.74
2016-02-26T11:44:55.903Z,1006.7
2016-02-26T11:45:55.953Z,1006.73
2016-02-26T11:46:56.002Z,1006.7
2016-02-26T11:47:56.052Z,1006.69
2016-02-26T11:48:56.101Z,1006.67
2016-02-26T11:49:56.150Z,1006.69
2016-02-26T11:50:56.201Z,1006.65
2016-02-26T11:51:56.250Z,1006.67
2016-02-26T11:52:56.315Z,1006.67
2016-02-26T11:53:56.365Z,1006.64
2016-02-26T11:54:56.431Z,1006.62
2016-02-26T11:55:56.464Z,1006.59
2016-02-26T11:56:56.514Z,1006.66
2016-02-26T11:57:56.563Z,1006.63
2016-02-26T11:58:56.613Z,1006.59
2016-02-26T11:59:56.662Z,1006.57
2016-02-26T12:00:56.711Z,1006.56
2016-02-26T12:01:56.761Z,1006.49
2016-02-26T12:02:56.827Z,1006.49
2016-02-26T12:03:56.860Z,1006.51
2016-02-26T12:04:56.910Z,1006.5
2016-02-26T12:05:56.960Z,1006.51
2016-02-26T12:06:57.010Z,1006.52
2016-02-26T12:07:57.058Z,1006.5
2016-02-26T12:08:57.108Z,1006.45